Time;durP1;ratioP1;P1;durP2;ratioP2;P2;SDS_P1;SDS_P2;PMS_P1;PMS_P2;Temp;Humidity;BMP_temperature;BMP_pressure;BME280_temperature;BME280_humidity;BME280_pressure;Samples;Min_cycle;Max_cycle;Signal;HPM_P1;HPM_P2
2022/09/05 00:01:22;;;;;;;5.47;3.88;;;;;;;15.66;58.37;101777.78;7399132;19;20023;-69
2022/09/05 00:03:57;;;;;;;4.03;3.55;;;;;;;15.62;58.61;101772.56;7397972;19;20022;-70
2022/09/05 00:06:28;;;;;;;3.95;3.55;;;;;;;15.59;58.80;101777.94;7399624;19;20018;-69
2022/09/05 00:09:06;;;;;;;3.58;3.28;;;;;;;15.57;58.93;101778.88;7400265;19;20032;-69
2022/09/05 00:11:41;;;;;;;5.22;3.28;;;;;;;15.55;58.95;101778.06;7398495;19;20036;-69
2022/09/05 00:14:34;;;;;;;4.32;3.45;;;;;;;15.51;58.95;101777.28;7398941;19;20509;-70
2022/09/05 00:17:11;;;;;;;3.88;3.30;;;;;;;15.47;59.32;101779.13;7400007;19;20027;-70
2022/09/05 00:19:49;;;;;;;4.50;3.75;;;;;;;15.44;59.24;101765.13;7397604;19;20028;-69
2022/09/05 00:22:30;;;;;;;5.28;3.85;;;;;;;15.40;59.61;101771.41;7397336;19;20022;-69
2022/09/05 00:25:18;;;;;;;5.00;3.78;;;;;;;15.36;59.43;101765.31;7399853;19;20018;-69
2022/09/05 00:27:53;;;;;;;3.60;3.03;;;;;;;15.31;60.14;101772.50;7398067;19;20074;-69
2022/09/05 00:30:23;;;;;;;4.45;3.47;;;;;;;15.27;59.84;101773.50;7399448;19;20018;-69
2022/09/05 00:33:11;;;;;;;3.60;3.30;;;;;;;15.23;60.56;101782.41;7398775;19;20485;-70
2022/09/05 00:35:54;;;;;;;5.72;3.28;;;;;;;15.19;60.20;101776.31;7397854;19;20035;-69
2022/09/05 00:38:28;;;;;;;4.30;3.85;;;;;;;15.16;60.16;101784.31;7398702;19;20031;-69
2022/09/05 00:41:01;;;;;;;;;;;;;;;15.11;59.78;101781.81;7399340;19;20029;-69
2022/09/05 00:43:34;;;;;;;5.70;4.07;;;;;;;15.08;59.92;101784.50;7399184;19;19931;-70
2022/09/05 00:46:06;;;;;;;5.60;4.18;;;;;;;15.05;60.34;101781.94;7398536;19;20372;-69
2022/09/05 00:48:46;;;;;;;4.45;4.05;;;;;;;15.03;60.46;101780.25;7398953;19;20022;-69
2022/09/05 00:51:25;;;;;;;3.72;3.30;;;;;;;14.99;60.68;101780.31;7395970;19;20541;-70
2022/09/05 00:54:20;;;;;;;5.50;3.78;;;;;;;14.95;60.64;101778.66;7398912;19;20022;-69
2022/09/05 00:57:15;;;;;;;5.20;3.75;;;;;;;14.92;60.82;101783.13;7398016;19;20027;-69
2022/09/05 01:00:14;;;;;;;4.25;3.75;;;;;;;14.89;60.79;101775.28;7396338;19;20010;-69
2022/09/05 01:03:01;;;;;;;4.28;3.60;;;;;;;14.88;60.94;101784.97;7396782;19;20469;-72
2022/09/05 01:05:43;;;;;;;3.88;3.40;;;;;;;14.86;60.94;101781.50;7398429;19;20026;-69
2022/09/05 01:08:28;;;;;;;5.95;3.90;;;;;;;14.87;60.96;101785.88;7398265;19;20031;-70
2022/09/05 01:11:07;;;;;;;6.00;3.95;;;;;;;14.85;61.10;101787.69;7396121;19;20026;-70
2022/09/05 01:13:51;;;;;;;5.53;3.53;;;;;;;14.83;61.41;101790.34;7398318;19;20027;-68
2022/09/05 01:16:29;;;;;;;4.80;3.72;;;;;;;14.81;61.23;101792.19;7396080;19;20026;-68
2022/09/05 01:19:07;;;;;;;4.10;3.42;;;;;;;14.79;61.65;101790.47;7398030;19;20018;-68
2022/09/05 01:22:00;;;;;;;4.22;3.83;;;;;;;14.78;61.53;101792.22;7396558;19;20014;-68
2022/09/05 01:24:50;;;;;;;4.90;3.45;;;;;;;14.78;61.57;101794.00;7397855;19;20011;-68
2022/09/05 01:27:55;;;;;;;4.43;3.42;;;;;;;14.76;61.62;101788.78;7397702;19;20193;-68
2022/09/05 01:30:28;;;;;;;4.30;3.65;;;;;;;14.76;61.57;101791.41;7397340;19;20014;-67
2022/09/05 01:33:09;;;;;;;8.90;3.95;;;;;;;14.74;61.71;101787.94;7397613;19;20039;-68
2022/09/05 01:35:51;;;;;;;6.85;3.78;;;;;;;14.74;61.82;101793.22;7395774;19;20444;-68
2022/09/05 01:38:27;;;;;;;4.72;3.58;;;;;;;14.74;61.69;101795.00;7397232;19;20019;-68
2022/09/05 01:41:08;;;;;;;3.70;3.33;;;;;;;14.71;62.00;101790.66;7393883;19;20364;-67
2022/09/05 01:43:59;;;;;;;6.30;3.40;;;;;;;14.70;61.89;101799.47;7397201;19;20006;-68
2022/09/05 01:46:39;;;;;;;4.30;3.72;;;;;;;14.69;61.74;101792.44;7396338;19;20362;-68
2022/09/05 01:49:19;;;;;;;4.15;3.70;;;;;;;14.69;62.36;101789.81;7397027;19;20018;-67
2022/09/05 01:52:11;;;;;;;6.78;3.90;;;;;;;14.66;61.91;101788.09;7395566;19;20019;-69
2022/09/05 01:54:54;;;;;;;4.97;3.42;;;;;;;14.64;62.24;101794.28;7394903;19;20082;-68
2022/09/05 01:57:31;;;;;;;5.45;3.63;;;;;;;14.62;62.07;101796.97;7396813;19;20018;-68
2022/09/05 02:00:12;;;;;;;7.80;3.70;;;;;;;14.60;62.05;101804.06;7394487;19;20015;-68
2022/09/05 02:02:53;;;;;;;4.72;3.70;;;;;;;14.58;62.10;101804.97;7396560;19;20015;-69
2022/09/05 02:05:34;;;;;;;5.22;3.58;;;;;;;14.56;62.32;101810.31;7396590;19;20414;-68
2022/09/05 02:08:30;;;;;;;4.90;3.65;;;;;;;14.55;62.40;101813.00;7396510;19;20022;-68
2022/09/05 02:11:09;;;;;;;5.50;3.83;;;;;;;14.51;62.75;101809.53;7393986;19;20422;-68
2022/09/05 02:13:55;;;;;;;6.55;4.15;;;;;;;14.52;62.55;101805.13;7395806;19;20010;-68
2022/09/05 02:16:34;;;;;;;4.78;3.75;;;;;;;14.50;62.73;101802.50;7395784;19;20438;-67
2022/09/05 02:19:08;;;;;;;5.95;4.35;;;;;;;14.49;62.58;101808.69;7396706;19;20081;-68
2022/09/05 02:21:44;;;;;;;4.93;3.90;;;;;;;14.47;62.69;101806.09;7394634;19;20014;-68
2022/09/05 02:24:23;;;;;;;4.55;3.67;;;;;;;14.46;62.94;101800.84;7395925;19;20018;-68
2022/09/05 02:27:09;;;;;;;4.05;3.45;;;;;;;14.46;62.96;101795.56;7395915;19;20018;-69
2022/09/05 02:29:43;;;;;;;6.50;3.83;;;;;;;14.44;62.92;101805.28;7395028;19;20011;-69
2022/09/05 02:32:20;;;;;;;6.20;4.03;;;;;;;14.42;63.03;101804.44;7393963;19;20074;-69
2022/09/05 02:35:00;;;;;;;4.50;3.58;;;;;;;14.42;62.77;101804.44;7394576;19;20018;-68
2022/09/05 02:37:40;;;;;;;5.43;3.83;;;;;;;14.42;62.98;101799.16;7395244;19;20029;-69
2022/09/05 02:40:18;;;;;;;6.55;4.43;;;;;;;14.43;62.96;101803.53;7395365;19;20074;-68
2022/09/05 02:42:53;;;;;;;4.80;4.03;;;;;;;14.42;62.94;101809.72;7395552;19;20432;-69
2022/09/05 02:45:33;;;;;;;4.10;3.67;;;;;;;14.41;63.08;101808.00;7395248;19;20078;-69
2022/09/05 02:48:14;;;;;;;5.15;4.55;;;;;;;14.40;63.09;101811.53;7395233;19;20027;-68
2022/09/05 02:50:52;;;;;;;5.40;4.00;;;;;;;14.34;62.99;101797.56;7393342;19;20082;-69
2022/09/05 02:53:22;;;;;;;7.43;3.88;;;;;;;14.35;63.11;101801.06;7399695;19;20014;-69
2022/09/05 02:56:10;;;;;;;5.32;4.13;;;;;;;14.34;63.32;101809.88;7400390;19;20510;-68
2022/09/05 02:58:48;;;;;;;4.50;4.10;;;;;;;14.30;63.20;101806.41;7398281;19;20022;-68
2022/09/05 03:01:28;;;;;;;6.43;4.70;;;;;;;14.28;63.17;101807.34;7400929;19;20035;-69
2022/09/05 03:04:16;;;;;;;5.30;3.72;;;;;;;14.25;63.45;101813.56;7402239;19;20410;-69
2022/09/05 03:07:00;;;;;;;5.82;4.25;;;;;;;14.23;63.15;101815.38;7401614;19;20031;-68
2022/09/05 03:09:45;;;;;;;5.05;4.00;;;;;;;14.21;63.55;101811.03;7401904;19;20019;-69
2022/09/05 03:12:42;;;;;;;5.65;4.20;;;;;;;14.20;63.42;101818.06;7398846;19;20027;-69
2022/09/05 03:15:46;;;;;;;;;;;;;;;;;;;;;
2022/09/05 03:18:53;;;;;;;6.47;4.18;;;;;;;14.11;63.53;101805.91;7400977;19;20010;-68
2022/09/05 03:21:54;;;;;;;5.43;3.88;;;;;;;14.08;63.75;101790.16;7398477;19;20018;-68
2022/09/05 03:24:57;;;;;;;5.60;4.38;;;;;;;14.04;63.96;101793.78;7397635;19;20019;-70
2022/09/05 03:28:02;;;;;;;4.82;4.30;;;;;;;13.98;64.05;101796.53;7401166;19;20019;-69
2022/09/05 03:30:44;;;;;;;5.15;4.18;;;;;;;13.95;63.96;101796.56;7400773;19;20077;-69
2022/09/05 03:33:45;;;;;;;5.93;4.38;;;;;;;13.88;63.99;101798.47;7400324;19;20471;-69
2022/09/05 03:36:54;;;;;;;7.15;5.25;;;;;;;13.85;64.53;101799.38;7398229;19;20015;-69
2022/09/05 03:40:05;;;;;;;7.25;5.32;;;;;;;13.82;64.31;101804.69;7400194;19;20380;-69
2022/09/05 03:43:03;;;;;;;6.25;4.78;;;;;;;13.79;64.55;101803.91;7394749;19;20015;-69
2022/09/05 03:46:04;;;;;;;5.88;4.40;;;;;;;13.75;64.59;101804.84;7397725;19;20021;-68
2022/09/05 03:48:57;;;;;;;6.90;4.25;;;;;;;13.71;64.74;101801.41;7400366;19;20051;-68
2022/09/05 03:51:35;;;;;;;6.45;4.75;;;;;;;13.67;64.93;101792.69;7398862;19;20032;-72
2022/09/05 03:54:46;;;;;;;6.65;4.55;;;;;;;13.65;65.12;101801.53;7399879;19;20027;-73
2022/09/05 03:57:34;;;;;;;7.03;4.65;;;;;;;13.61;65.13;101807.72;7398004;19;20014;-68
2022/09/05 04:00:11;;;;;;;5.82;4.35;;;;;;;13.58;65.07;101802.53;7397709;19;20013;-68
2022/09/05 04:03:00;;;;;;;4.85;4.35;;;;;;;13.55;65.27;101806.09;7399021;19;20046;-68
2022/09/05 04:05:33;;;;;;;5.55;4.80;;;;;;;13.53;65.19;101807.88;7396858;19;20073;-68
2022/09/05 04:08:10;;;;;;;7.18;5.15;;;;;;;13.50;65.67;101808.78;7400015;19;20010;-69
2022/09/05 04:10:45;;;;;;;8.73;5.03;;;;;;;13.47;65.64;101813.25;7399123;19;20366;-68
2022/09/05 04:13:22;;;;;;;5.90;4.35;;;;;;;13.46;65.45;101806.25;7397663;19;20026;-68
2022/09/05 04:16:06;;;;;;;5.88;4.43;;;;;;;13.42;65.71;101810.69;7398312;19;20019;-69
2022/09/05 04:18:38;;;;;;;;;;;;;;;13.41;65.79;101814.22;7400173;19;20363;-69
2022/09/05 04:21:13;;;;;;;7.85;5.18;;;;;;;13.38;65.61;101813.41;7397993;19;19947;-69
2022/09/05 04:24:05;;;;;;;7.75;6.00;;;;;;;13.35;66.22;101812.50;7399457;19;20019;-68
2022/09/05 04:26:58;;;;;;;6.55;4.85;;;;;;;13.34;66.06;101823.09;7398977;19;20014;-68
2022/09/05 04:29:38;;;;;;;7.85;5.15;;;;;;;13.32;66.03;101824.88;7398543;19;20027;-69
2022/09/05 04:32:24;;;;;;;6.82;5.35;;;;;;;13.29;66.14;101815.25;7396796;19;20029;-69
2022/09/05 04:35:07;;;;;;;8.18;5.40;;;;;;;13.29;66.24;101823.16;7397799;19;20391;-68
2022/09/05 04:37:46;;;;;;;7.63;5.30;;;;;;;13.28;66.52;101825.81;7396263;19;20019;-67
2022/09/05 04:40:41;;;;;;;7.43;5.18;;;;;;;13.30;66.51;101821.41;7398300;19;20752;-72
2022/09/05 04:43:15;;;;;;;7.97;5.22;;;;;;;13.29;66.14;101824.94;7401331;19;20023;-67
2022/09/05 04:45:46;;;;;;;;;;;;;;;13.29;66.35;101831.06;7399082;19;20031;-67
2022/09/05 04:48:23;;;;;;;7.47;5.80;;;;;;;13.29;65.97;101828.41;7399073;19;19926;-66
2022/09/05 04:51:08;;;;;;;8.43;5.57;;;;;;;13.29;66.33;101831.06;7396787;19;20019;-67
2022/09/05 04:54:00;;;;;;;6.68;5.45;;;;;;;13.31;66.22;101833.69;7397967;19;20021;-67
2022/09/05 04:56:43;;;;;;;6.90;5.68;;;;;;;13.31;66.03;101833.69;7396693;19;20020;-68
2022/09/05 04:59:21;;;;;;;8.77;6.35;;;;;;;13.34;66.17;101836.25;7393721;19;20548;-68
2022/09/05 05:01:55;;;;;;;9.50;6.05;;;;;;;13.36;66.27;101832.72;7394021;19;20018;-69
2022/09/05 05:04:28;;;;;;;6.60;5.90;;;;;;;13.39;66.20;101836.22;7396599;19;20022;-68
2022/09/05 05:07:07;;;;;;;6.97;5.72;;;;;;;13.42;66.12;101837.06;7394007;19;20372;-67
2022/09/05 05:09:43;;;;;;;7.35;5.97;;;;;;;13.45;66.19;101841.41;7395114;19;20015;-67
2022/09/05 05:12:23;;;;;;;8.27;6.20;;;;;;;13.48;66.17;101846.63;7394097;19;20022;-68
2022/09/05 05:14:56;;;;;;;9.40;6.55;;;;;;;13.51;65.94;101844.81;7395030;19;20029;-68
2022/09/05 05:17:36;;;;;;;7.57;5.63;;;;;;;13.55;66.05;101837.72;7395070;19;20023;-67
2022/09/05 05:20:17;;;;;;;8.93;5.88;;;;;;;13.57;65.99;101843.81;7396961;19;20477;-68
2022/09/05 05:22:53;;;;;;;10.30;6.35;;;;;;;13.59;66.11;101841.19;7396199;19;20023;-68
2022/09/05 05:25:22;;;;;;;8.07;6.22;;;;;;;13.61;66.01;101842.00;7394019;19;20014;-68
2022/09/05 05:28:04;;;;;;;6.65;5.93;;;;;;;13.62;66.02;101841.13;7396448;19;20031;-68
2022/09/05 05:30:34;;;;;;;7.82;5.32;;;;;;;13.64;66.10;101836.69;7396327;19;20062;-68
2022/09/05 05:33:18;;;;;;;7.60;5.95;;;;;;;13.67;65.90;101847.19;7395521;19;20504;-68
2022/09/05 05:35:51;;;;;;;7.38;6.22;;;;;;;13.67;65.99;101839.28;7395138;19;20019;-68
2022/09/05 05:38:30;;;;;;;7.87;5.50;;;;;;;13.67;66.44;101841.91;7395400;19;20025;-68
2022/09/05 05:41:08;;;;;;;10.23;6.72;;;;;;;13.68;66.21;101844.50;7395648;19;20077;-69
2022/09/05 05:43:40;;;;;;;11.13;6.75;;;;;;;13.71;66.25;101848.00;7393410;19;20032;-68
2022/09/05 05:46:14;;;;;;;11.20;6.53;;;;;;;13.72;66.18;101855.03;7394674;19;20019;-72
2022/09/05 05:48:46;;;;;;;9.48;5.95;;;;;;;13.73;66.21;101860.25;7396727;19;20019;-68
2022/09/05 05:51:41;;;;;;;10.48;6.43;;;;;;;13.76;66.36;101864.63;7394743;19;20014;-67
2022/09/05 05:54:22;;;;;;;10.93;7.05;;;;;;;13.79;66.24;101868.06;7395677;19;20343;-68
2022/09/05 05:57:24;;;;;;;7.50;6.05;;;;;;;13.81;66.31;101860.13;7394624;19;20362;-69
2022/09/05 06:00:05;;;;;;;8.35;6.57;;;;;;;13.90;66.17;101862.63;7393185;19;20011;-65
2022/09/05 06:03:10;;;;;;;11.95;8.10;;;;;;;13.94;66.49;101860.78;7393243;19;20031;-67
2022/09/05 06:06:17;;;;;;;15.02;10.75;;;;;;;13.99;66.51;101862.44;7393370;19;20477;-68
2022/09/05 06:09:16;;;;;;;9.85;6.65;;;;;;;14.07;66.25;101864.94;7393982;19;20014;-67
2022/09/05 06:12:27;;;;;;;9.82;6.68;;;;;;;14.16;66.21;101861.25;7393949;19;20022;-67
2022/09/05 06:15:26;;;;;;;10.63;6.72;;;;;;;14.25;65.72;101865.50;7395066;19;20022;-74
2022/09/05 06:18:34;;;;;;;10.45;6.78;;;;;;;14.32;66.14;101872.41;7392848;19;20031;-67
2022/09/05 06:21:50;;;;;;;9.05;6.47;;;;;;;14.41;65.97;101864.28;7393086;19;20026;-67
2022/09/05 06:25:09;;;;;;;12.18;6.88;;;;;;;14.52;65.91;101865.84;7394655;19;20572;-67
2022/09/05 06:27:54;;;;;;;9.63;6.47;;;;;;;14.61;65.49;101869.19;7390469;19;20022;-66
2022/09/05 06:30:25;;;;;;;7.78;6.70;;;;;;;14.70;65.51;101864.63;7393970;19;20014;-68
2022/09/05 06:33:10;;;;;;;10.88;7.93;;;;;;;14.79;65.47;101865.31;7395137;19;20037;-67
2022/09/05 06:35:50;;;;;;;13.32;7.20;;;;;;;14.89;65.18;101871.25;7394992;19;20010;-67
2022/09/05 06:38:32;;;;;;;11.20;6.20;;;;;;;14.97;65.21;101879.91;7394772;19;20018;-66
2022/09/05 06:41:18;;;;;;;14.75;7.35;;;;;;;15.07;64.83;101871.75;7392361;19;20211;-68
2022/09/05 06:44:21;;;;;;;12.27;6.85;;;;;;;15.18;64.85;101885.59;7393869;19;20029;-68
2022/09/05 06:46:54;;;;;;;17.77;7.22;;;;;;;15.25;64.85;101881.94;7392576;19;20024;-69
2022/09/05 06:49:27;;;;;;;9.65;7.07;;;;;;;15.33;64.78;101881.75;7393142;19;20032;-68
2022/09/05 06:52:22;;;;;;;9.32;6.75;;;;;;;15.41;64.67;101877.13;7392455;19;20042;-67
2022/09/05 06:55:24;;;;;;;9.82;7.55;;;;;;;15.51;64.54;101887.50;7394769;19;20023;-66
2022/09/05 06:58:41;;;;;;;9.10;6.57;;;;;;;15.60;64.35;101881.97;7392187;19;20014;-67
2022/09/05 07:01:14;;;;;;;7.15;6.15;;;;;;;15.66;64.20;101875.66;7392421;19;20018;-68
2022/09/05 07:04:02;;;;;;;11.23;6.57;;;;;;;15.73;64.14;101872.84;7394854;19;20015;-66
2022/09/05 07:06:40;;;;;;;9.27;6.00;;;;;;;15.80;64.18;101869.09;7393610;19;20500;-66
2022/09/05 07:09:24;;;;;;;9.35;6.00;;;;;;;15.89;63.90;101869.81;7391396;19;20022;-66
2022/09/05 07:12:04;;;;;;;7.47;6.57;;;;;;;15.94;63.76;101870.56;7392750;19;20019;-67
2022/09/05 07:14:39;;;;;;;8.13;5.30;;;;;;;15.99;63.99;101873.97;7391929;19;20014;-66
2022/09/05 07:17:17;;;;;;;9.63;5.72;;;;;;;16.08;63.80;101870.19;7392609;19;20103;-66
2022/09/05 07:19:54;;;;;;;7.80;6.35;;;;;;;16.17;63.81;101877.03;7391570;19;20019;-67
2022/09/05 07:22:32;;;;;;;9.05;6.35;;;;;;;16.24;63.42;101876.81;7391629;19;20467;-67
2022/09/05 07:25:06;;;;;;;7.20;5.45;;;;;;;16.32;63.13;101870.44;7391306;19;20031;-67
2022/09/05 07:27:37;;;;;;;;;;;;;;;16.38;63.27;101863.19;7393902;19;20014;-67
2022/09/05 07:30:07;;;;;;;6.63;5.35;;;;;;;16.44;62.79;101870.97;7390684;19;19940;-66
2022/09/05 07:32:44;;;;;;;8.02;5.53;;;;;;;16.51;63.30;101871.66;7390953;19;20485;-67
2022/09/05 07:35:20;;;;;;;8.07;5.57;;;;;;;16.59;62.90;101876.72;7391487;19;20494;-65
2022/09/05 07:37:55;;;;;;;6.90;5.50;;;;;;;16.67;63.02;101876.50;7393115;19;20514;-66
2022/09/05 07:40:26;;;;;;;6.75;5.65;;;;;;;16.74;62.75;101878.94;7400073;19;20396;-66
2022/09/05 07:43:00;;;;;;;12.88;5.80;;;;;;;16.83;62.51;101885.72;7400431;19;20019;-66
2022/09/05 07:45:31;;;;;;;8.00;4.85;;;;;;;16.90;62.49;101884.63;7397268;19;20014;-66
2022/09/05 07:48:06;;;;;;;6.78;5.22;;;;;;;16.98;62.35;101884.44;7399887;19;20010;-66
2022/09/05 07:50:46;;;;;;;5.95;5.32;;;;;;;17.04;62.30;101884.25;7397270;19;20478;-67
2022/09/05 07:53:18;;;;;;;8.27;5.88;;;;;;;17.14;62.26;101884.84;7400745;19;20018;-66
2022/09/05 07:55:52;;;;;;;9.43;5.85;;;;;;;17.23;62.58;101878.38;7399944;19;20010;-66
2022/09/05 07:58:24;;;;;;;9.68;5.90;;;;;;;17.31;62.20;101884.28;7397355;19;20014;-65
2022/09/05 08:00:56;;;;;;;7.72;5.60;;;;;;;17.39;61.96;101879.63;7396721;19;20343;-67
2022/09/05 08:03:29;;;;;;;9.73;6.28;;;;;;;17.48;61.85;101880.22;7399861;19;20041;-66
2022/09/05 08:06:01;;;;;;;10.10;6.50;;;;;;;17.55;61.90;101877.34;7399028;19;20474;-67
2022/09/05 08:08:35;;;;;;;8.80;5.78;;;;;;;17.62;61.71;101878.00;7397404;19;20023;-66
2022/09/05 08:11:10;;;;;;;7.45;5.63;;;;;;;17.70;62.09;101875.94;7398930;19;20029;-66
2022/09/05 08:13:54;;;;;;;9.50;6.07;;;;;;;17.80;62.09;101878.31;7398858;19;20569;-66
2022/09/05 08:16:25;;;;;;;12.75;6.18;;;;;;;17.87;61.95;101866.56;7399861;19;20006;-67
2022/09/05 08:19:03;;;;;;;9.50;6.13;;;;;;;17.94;61.55;101861.94;7396233;19;20481;-67
2022/09/05 08:21:39;;;;;;;8.40;6.05;;;;;;;18.02;62.17;101871.38;7396270;19;20022;-66
2022/09/05 08:24:12;;;;;;;9.13;7.43;;;;;;;18.09;61.88;101864.03;7399554;19;20017;-67
2022/09/05 08:26:46;;;;;;;10.77;7.18;;;;;;;18.18;62.38;101865.50;7399982;19;20018;-68
2022/09/05 08:29:29;;;;;;;7.13;6.35;;;;;;;18.27;62.30;101865.16;7399205;19;20014;-69
2022/09/05 08:32:07;;;;;;;11.45;6.95;;;;;;;18.35;61.88;101855.13;7396715;19;20045;-69
2022/09/05 08:34:42;;;;;;;8.82;6.78;;;;;;;18.47;61.92;101858.25;7396680;19;20037;-69
2022/09/05 08:37:12;;;;;;;10.75;5.97;;;;;;;18.55;61.76;101856.16;7398427;19;20018;-69
2022/09/05 08:39:43;;;;;;;11.50;6.43;;;;;;;18.63;61.66;101843.47;7398833;19;20024;-69
2022/09/05 08:42:28;;;;;;;7.43;6.15;;;;;;;18.72;62.01;101850.22;7395702;19;20019;-68
2022/09/05 08:45:14;;;;;;;8.35;6.53;;;;;;;18.81;61.90;101846.34;7398710;19;20015;-68
2022/09/05 08:47:54;;;;;;;8.25;6.45;;;;;;;18.89;61.22;101844.25;7398760;19;20014;-69
2022/09/05 08:50:44;;;;;;;10.13;6.90;;;;;;;18.96;61.40;101845.78;7395666;19;20015;-68
2022/09/05 08:53:21;;;;;;;8.68;7.22;;;;;;;19.03;61.46;101847.28;7398553;19;20045;-69
2022/09/05 08:55:56;;;;;;;9.18;7.38;;;;;;;19.12;61.20;101850.47;7395943;19;20034;-69
2022/09/05 08:58:41;;;;;;;14.68;7.88;;;;;;;19.18;61.34;101843.13;7396340;19;20364;-68
2022/09/05 09:01:18;;;;;;;12.20;7.35;;;;;;;19.28;61.09;101840.09;7395574;19;20037;-68
2022/09/05 09:04:21;;;;;;;8.10;7.30;;;;;;;19.36;61.29;101835.28;7398169;19;20407;-68
2022/09/05 09:07:16;;;;;;;9.43;7.40;;;;;;;19.46;60.90;101841.13;7397237;19;20473;-68
2022/09/05 09:09:53;;;;;;;10.48;7.47;;;;;;;19.52;60.93;101833.75;7396007;19;20034;-68
2022/09/05 09:12:47;;;;;;;12.77;7.15;;;;;;;19.60;60.72;101833.44;7395390;19;20019;-68
2022/09/05 09:15:23;;;;;;;8.18;7.10;;;;;;;19.67;60.53;101834.88;7397071;19;20448;-68
2022/09/05 09:17:54;;;;;;;8.95;7.05;;;;;;;19.77;60.43;101834.50;7396209;19;20019;-69
2022/09/05 09:20:36;;;;;;;11.10;7.38;;;;;;;19.85;60.20;101833.28;7397273;19;20018;-67
2022/09/05 09:23:13;;;;;;;9.82;7.00;;;;;;;19.92;60.07;101833.84;7397530;19;20021;-67
2022/09/05 09:25:51;;;;;;;8.38;7.50;;;;;;;20.00;60.18;101833.50;7396475;19;20481;-68
2022/09/05 09:28:54;;;;;;;8.52;7.20;;;;;;;20.08;59.96;101828.72;7396251;19;20017;-69
2022/09/05 09:31:51;;;;;;;8.18;6.85;;;;;;;20.16;59.75;101825.72;7395315;19;20018;-68
2022/09/05 09:34:39;;;;;;;8.73;6.82;;;;;;;20.22;59.31;101828.09;7395984;19;20027;-68
2022/09/05 09:37:39;;;;;;;8.75;7.50;;;;;;;20.31;59.16;101825.00;7394444;19;20018;-68
2022/09/05 09:40:41;;;;;;;9.80;7.75;;;;;;;20.44;59.09;101824.47;7396467;19;20015;-69
2022/09/05 09:43:22;;;;;;;8.07;7.32;;;;;;;20.50;59.10;101816.19;7395842;19;20037;-68
2022/09/05 09:46:11;;;;;;;7.57;6.88;;;;;;;20.60;58.95;101828.13;7395777;19;20494;-68
2022/09/05 09:49:06;;;;;;;7.68;6.97;;;;;;;20.70;58.15;101817.03;7393719;19;20082;-69
2022/09/05 09:51:57;;;;;;;9.32;7.00;;;;;;;20.77;58.04;101811.34;7394491;19;20019;-69
2022/09/05 09:54:52;;;;;;;8.75;6.28;;;;;;;20.89;57.67;101809.91;7394685;19;20015;-68
2022/09/05 09:57:52;;;;;;;9.10;6.93;;;;;;;20.98;58.02;101812.13;7399782;19;20018;-70
2022/09/05 10:00:23;;;;;;;9.57;6.60;;;;;;;21.07;57.96;101804.63;7392916;19;20007;-71
2022/09/05 10:03:05;;;;;;;9.07;6.53;;;;;;;21.12;57.38;101799.94;7395090;19;20070;-71
2022/09/05 10:05:46;;;;;;;7.40;6.20;;;;;;;21.18;57.01;101802.28;7395591;19;20036;-69
2022/09/05 10:08:24;;;;;;;8.13;6.70;;;;;;;21.26;57.30;101799.25;7395288;19;20014;-70
2022/09/05 10:11:15;;;;;;;8.77;7.18;;;;;;;21.31;56.88;101800.72;7394932;19;20022;-71
2022/09/05 10:14:13;;;;;;;7.07;6.38;;;;;;;21.37;56.45;101799.56;7395735;19;20023;-71
2022/09/05 10:17:07;;;;;;;8.55;6.88;;;;;;;21.45;56.39;101791.16;7394787;19;20078;-70
2022/09/05 10:20:13;;;;;;;8.02;6.93;;;;;;;21.49;55.82;101790.91;7395624;19;20022;-70
2022/09/05 10:23:09;;;;;;;8.07;6.97;;;;;;;21.55;55.95;101792.44;7394503;19;20069;-73
2022/09/05 10:25:59;;;;;;;7.18;6.47;;;;;;;21.62;56.06;101793.88;7393963;19;20022;-72
2022/09/05 10:28:39;;;;;;;7.57;6.78;;;;;;;21.66;55.76;101797.25;7393662;19;20028;-71
2022/09/05 10:31:18;;;;;;;8.07;6.57;;;;;;;21.72;55.39;101788.88;7392685;19;20369;-69
2022/09/05 10:33:55;;;;;;;7.32;6.63;;;;;;;21.79;55.41;101792.13;7394860;19;20035;-71
2022/09/05 10:36:26;;;;;;;7.60;6.82;;;;;;;21.87;54.95;101789.88;7394676;19;20015;-70
2022/09/05 10:39:05;;;;;;;6.57;5.97;;;;;;;21.95;54.39;101779.66;7392767;19;20509;-69
2022/09/05 10:41:49;;;;;;;7.57;6.88;;;;;;;22.02;54.17;101782.03;7393872;19;20022;-69
2022/09/05 10:44:28;;;;;;;7.35;6.40;;;;;;;22.09;54.10;101772.69;7395940;19;20011;-71
2022/09/05 10:47:17;;;;;;;8.10;6.00;;;;;;;22.15;53.69;101769.69;7394413;19;20023;-69
2022/09/05 10:50:02;;;;;;;8.52;6.40;;;;;;;22.22;53.43;101765.75;7395084;19;20041;-70
2022/09/05 10:52:38;;;;;;;7.05;6.30;;;;;;;22.29;53.13;101756.47;7392940;19;20024;-72
2022/09/05 10:55:21;;;;;;;11.02;6.75;;;;;;;22.36;53.15;101756.13;7392812;19;20035;-71
2022/09/05 10:58:06;;;;;;;8.20;6.35;;;;;;;22.43;53.29;101753.06;7392465;19;20015;-70
2022/09/05 11:00:53;;;;;;;7.13;6.43;;;;;;;22.52;52.92;101750.78;7392871;19;20033;-71
2022/09/05 11:03:31;;;;;;;6.88;5.95;;;;;;;22.56;51.47;101747.88;7394556;19;20018;-72
2022/09/05 11:06:04;;;;;;;7.47;6.65;;;;;;;22.60;51.74;101744.06;7394375;19;20036;-72
2022/09/05 11:08:41;;;;;;;13.82;6.50;;;;;;;22.64;50.98;101747.44;7393979;19;20431;-71
2022/09/05 11:11:17;;;;;;;6.63;5.90;;;;;;;22.70;51.82;101749.75;7391622;19;20018;-71
2022/09/05 11:13:49;;;;;;;7.65;6.28;;;;;;;22.78;51.54;101752.00;7399861;19;20030;-71
2022/09/05 11:16:37;;;;;;;7.45;6.75;;;;;;;22.84;50.34;101748.13;7401101;19;20343;-72
2022/09/05 11:19:16;;;;;;;6.97;6.03;;;;;;;22.90;50.44;101739.72;7398462;19;20363;-71
2022/09/05 11:21:54;;;;;;;7.45;6.75;;;;;;;22.97;50.74;101740.22;7398753;19;20371;-71
2022/09/05 11:24:35;;;;;;;6.82;6.13;;;;;;;23.02;50.36;101739.00;7400860;19;20030;-71
2022/09/05 11:27:07;;;;;;;6.75;5.85;;;;;;;23.13;50.35;101738.38;7398052;19;20022;-71
2022/09/05 11:29:42;;;;;;;6.57;5.87;;;;;;;23.21;49.82;101732.59;7399936;19;20015;-71
2022/09/05 11:32:32;;;;;;;8.50;6.40;;;;;;;23.31;49.15;101733.75;7397984;19;20018;-70
2022/09/05 11:35:24;;;;;;;7.70;5.75;;;;;;;23.41;48.67;101729.56;7400651;19;20027;-71
2022/09/05 11:38:24;;;;;;;6.65;5.70;;;;;;;23.51;48.01;101721.84;7396833;19;20038;-72
2022/09/05 11:41:29;;;;;;;6.57;5.88;;;;;;;23.61;48.01;101724.81;7398710;19;20026;-72
2022/09/05 11:44:32;;;;;;;6.68;5.13;;;;;;;23.73;47.61;101733.91;7393556;19;20018;-71
2022/09/05 11:47:36;;;;;;;6.80;4.82;;;;;;;23.83;46.86;101724.34;7400050;19;20015;-71
2022/09/05 11:50:24;;;;;;;;;;;;;;;23.90;47.46;101730.19;7400316;19;20015;-70
2022/09/05 11:53:28;;;;;;;6.15;4.65;;;;;;;23.98;46.83;101721.69;7400251;19;19918;-71
2022/09/05 11:56:14;;;;;;;4.95;4.55;;;;;;;24.07;46.21;101723.78;7397301;19;20007;-70
2022/09/05 11:59:10;;;;;;;6.22;4.50;;;;;;;24.20;45.72;101724.75;7398707;19;20027;-70
2022/09/05 12:01:52;;;;;;;5.47;4.22;;;;;;;24.34;45.00;101718.47;7395626;19;20027;-71
2022/09/05 12:04:39;;;;;;;4.95;4.50;;;;;;;24.50;44.84;101721.00;7399326;19;20018;-69
2022/09/05 12:07:39;;;;;;;4.85;4.45;;;;;;;24.67;44.73;101719.09;7399009;19;20035;-70
2022/09/05 12:10:21;;;;;;;4.70;4.30;;;;;;;24.85;44.56;101708.94;7398423;19;20348;-71
2022/09/05 12:13:03;;;;;;;5.85;4.38;;;;;;;25.02;42.82;101697.06;7399460;19;20010;-71
2022/09/05 12:15:33;;;;;;;4.57;3.92;;;;;;;25.22;43.26;101703.75;7398967;19;20018;-71
2022/09/05 12:18:16;;;;;;;4.57;4.18;;;;;;;25.47;42.67;101707.47;7398072;19;20086;-70
2022/09/05 12:20:55;;;;;;;4.30;3.90;;;;;;;25.72;41.88;101706.59;7397726;19;20019;-70
2022/09/05 12:23:33;;;;;;;7.82;4.13;;;;;;;26.00;42.02;101707.31;7398489;19;20011;-71
2022/09/05 12:26:08;;;;;;;4.45;3.95;;;;;;;26.24;41.40;101695.78;7398512;19;20018;-71
2022/09/05 12:28:46;;;;;;;4.35;3.95;;;;;;;26.43;40.33;101696.13;7398758;19;20025;-71
2022/09/05 12:31:21;;;;;;;4.88;3.65;;;;;;;26.61;39.98;101695.72;7396930;19;20022;-71
2022/09/05 12:33:52;;;;;;;6.40;4.28;;;;;;;26.82;39.80;101694.13;7397863;19;20031;-71
2022/09/05 12:36:33;;;;;;;5.05;3.72;;;;;;;27.01;39.06;101689.16;7397422;19;20082;-71
2022/09/05 12:39:09;;;;;;;5.70;4.00;;;;;;;27.22;38.72;101687.53;7396933;19;20019;-70
2022/09/05 12:41:50;;;;;;;4.13;3.05;;;;;;;27.43;38.43;101682.31;7396729;19;20023;-71